createdAt,value
2017-07-28T00:00:01.403Z,86.12
2017-07-28T00:02:29.329Z,85.75
2017-07-28T00:04:57.204Z,85.57
2017-07-28T00:07:25.359Z,85.36
2017-07-28T00:09:53.333Z,86.60
2017-07-28T00:12:21.228Z,86.23
2017-07-28T00:14:49.049Z,86.61
2017-07-28T00:17:17.765Z,86.62
2017-07-28T00:19:45.602Z,86.45
2017-07-28T00:22:13.342Z,86.29
2017-07-28T00:24:41.107Z,86.32
2017-07-28T00:27:08.952Z,85.50
2017-07-28T00:29:36.986Z,86.56
2017-07-28T00:32:04.698Z,86.98
2017-07-28T00:34:32.556Z,86.45
2017-07-28T00:37:01.278Z,86.60
2017-07-28T00:39:29.080Z,86.47
2017-07-28T00:41:56.935Z,86.82
2017-07-28T00:44:24.723Z,86.60
2017-07-28T00:46:52.679Z,86.53
2017-07-28T00:49:20.531Z,86.81
2017-07-28T00:51:48.380Z,86.80
2017-07-28T00:54:16.262Z,87.05
2017-07-28T00:56:43.978Z,86.86
2017-07-28T00:59:11.851Z,87.20
2017-07-28T01:01:39.789Z,86.91
2017-07-28T01:04:07.474Z,86.92
2017-07-28T01:06:35.256Z,86.90
2017-07-28T01:09:03.236Z,87.33
2017-07-28T01:11:31.080Z,87.79
2017-07-28T01:13:58.900Z,87.46
2017-07-28T01:16:26.718Z,88.15
2017-07-28T01:18:54.523Z,87.64
2017-07-28T01:21:22.484Z,88.67
2017-07-28T01:23:50.407Z,89.11
2017-07-28T01:26:18.082Z,88.77
2017-07-28T01:28:46.027Z,88.24
2017-07-28T01:31:13.756Z,87.78
2017-07-28T01:33:41.569Z,87.38
2017-07-28T01:36:09.468Z,87.54
2017-07-28T01:38:37.215Z,87.96
2017-07-28T01:41:05.151Z,88.13
2017-07-28T01:43:33.087Z,88.08
2017-07-28T01:46:00.809Z,88.36
2017-07-28T01:48:28.644Z,88.20
2017-07-28T01:50:56.340Z,88.04
2017-07-28T01:53:24.066Z,87.98
2017-07-28T01:55:52.107Z,87.99
2017-07-28T01:58:19.831Z,87.91
2017-07-28T02:00:47.609Z,87.16
2017-07-28T02:03:15.535Z,88.06
2017-07-28T02:05:43.422Z,88.76
2017-07-28T02:08:11.191Z,88.97
2017-07-28T02:10:39.016Z,89.08
2017-07-28T02:13:06.756Z,88.52
2017-07-28T02:15:34.688Z,88.88
2017-07-28T02:18:02.404Z,88.36
2017-07-28T02:20:30.415Z,88.60
2017-07-28T02:22:58.150Z,89.05
2017-07-28T02:25:25.942Z,88.67
2017-07-28T02:27:53.886Z,88.12
2017-07-28T02:30:21.781Z,88.73
2017-07-28T02:32:49.640Z,88.28
2017-07-28T02:35:17.382Z,88.57
2017-07-28T02:37:45.383Z,88.41
2017-07-28T02:40:13.354Z,88.39
2017-07-28T02:42:41.408Z,89.24
2017-07-28T02:45:09.210Z,88.92
2017-07-28T02:47:37.026Z,88.54
2017-07-28T02:50:05.015Z,88.66
2017-07-28T02:52:32.887Z,88.54
2017-07-28T02:55:00.741Z,88.54
2017-07-28T02:57:28.607Z,88.40
2017-07-28T02:59:56.473Z,88.44
2017-07-28T03:02:24.306Z,88.87
2017-07-28T03:04:52.194Z,88.82
2017-07-28T03:07:20.115Z,88.76
2017-07-28T03:09:48.014Z,89.30
2017-07-28T03:12:15.945Z,88.82
2017-07-28T03:14:43.746Z,88.87
2017-07-28T03:17:11.696Z,89.39
2017-07-28T03:19:39.599Z,89.18
2017-07-28T03:22:07.613Z,88.71
2017-07-28T03:24:35.562Z,88.73
2017-07-28T03:27:03.512Z,88.62
2017-07-28T03:29:31.341Z,88.68
2017-07-28T03:31:59.150Z,88.57
2017-07-28T03:34:26.971Z,88.91
2017-07-28T03:36:54.830Z,89.05
2017-07-28T03:39:22.651Z,88.96
2017-07-28T03:41:50.435Z,89.04
2017-07-28T03:44:18.262Z,89.28
2017-07-28T03:46:46.004Z,89.25
2017-07-28T03:49:13.702Z,89.64
2017-07-28T03:51:41.507Z,90.12
2017-07-28T03:54:09.348Z,90.04
2017-07-28T03:56:37.207Z,89.96
2017-07-28T03:59:05.077Z,90.15
2017-07-28T04:01:32.770Z,89.81
2017-07-28T04:04:00.589Z,89.70
2017-07-28T04:06:28.539Z,89.93
2017-07-28T04:08:56.219Z,89.30
2017-07-28T04:11:24.056Z,89.76
2017-07-28T04:13:51.902Z,90.62
2017-07-28T04:16:19.712Z,90.28
2017-07-28T04:18:47.459Z,90.04
2017-07-28T04:21:15.425Z,89.69
2017-07-28T04:23:43.241Z,90.51
2017-07-28T04:26:11.088Z,90.14
2017-07-28T04:28:38.889Z,89.62
2017-07-28T04:31:06.731Z,89.36
2017-07-28T04:33:34.587Z,88.55
2017-07-28T04:36:02.466Z,89.80
2017-07-28T04:38:30.195Z,90.37
2017-07-28T04:40:57.944Z,89.87
2017-07-28T04:43:25.687Z,89.74
2017-07-28T04:45:53.476Z,89.36
2017-07-28T04:48:21.229Z,89.54
2017-07-28T04:50:49.186Z,89.52
2017-07-28T04:53:16.940Z,89.05
2017-07-28T04:55:44.725Z,89.21
2017-07-28T04:58:12.522Z,88.15
2017-07-28T05:00:40.279Z,88.80
2017-07-28T05:03:08.081Z,88.95
2017-07-28T05:05:35.901Z,88.93
2017-07-28T05:08:03.783Z,89.16
2017-07-28T05:10:31.534Z,90.12
2017-07-28T05:12:59.244Z,89.67
2017-07-28T05:15:27.117Z,89.00
2017-07-28T05:17:55.042Z,88.69
2017-07-28T05:20:23.186Z,88.89
2017-07-28T05:22:51.073Z,88.92
2017-07-28T05:25:19.029Z,88.77
2017-07-28T05:27:48.437Z,89.04
2017-07-28T05:30:16.230Z,89.92
2017-07-28T05:32:44.008Z,90.08
2017-07-28T05:35:11.943Z,89.85
2017-07-28T05:37:39.812Z,90.36
2017-07-28T05:40:07.756Z,90.85
2017-07-28T05:42:35.710Z,91.40
2017-07-28T05:45:03.650Z,90.96
2017-07-28T05:47:31.421Z,90.95
2017-07-28T05:49:59.293Z,89.95
2017-07-28T05:52:27.325Z,89.08
2017-07-28T05:54:55.509Z,89.82
2017-07-28T05:57:23.460Z,89.08
2017-07-28T05:59:51.351Z,88.53
2017-07-28T06:02:19.219Z,88.22
2017-07-28T06:04:47.126Z,87.21
2017-07-28T06:07:15.459Z,86.74
2017-07-28T06:09:43.537Z,87.33
2017-07-28T06:12:11.523Z,87.32
2017-07-28T06:14:39.316Z,87.53
2017-07-28T06:17:07.279Z,88.13
2017-07-28T06:19:35.097Z,88.69
2017-07-28T06:22:02.969Z,86.75
2017-07-28T06:24:30.981Z,86.40
2017-07-28T06:26:58.891Z,86.34
2017-07-28T06:29:26.829Z,85.39
2017-07-28T06:31:54.670Z,85.54
2017-07-28T06:34:22.550Z,83.09
2017-07-28T06:36:50.324Z,84.50
2017-07-28T06:39:18.270Z,83.60
2017-07-28T06:41:46.331Z,83.46
2017-07-28T06:44:14.276Z,83.29
2017-07-28T06:46:42.163Z,83.95
2017-07-28T06:49:09.964Z,83.63
2017-07-28T06:51:37.967Z,83.05
2017-07-28T06:54:05.821Z,83.16
2017-07-28T06:56:33.585Z,82.82
2017-07-28T06:59:01.402Z,81.09
2017-07-28T07:01:29.322Z,81.85
2017-07-28T07:03:57.939Z,81.43
2017-07-28T07:06:25.930Z,79.97
2017-07-28T07:08:53.723Z,79.18
2017-07-28T07:11:21.633Z,74.81
2017-07-28T07:13:49.344Z,75.60
2017-07-28T07:16:17.090Z,75.28
2017-07-28T07:18:44.806Z,73.38
2017-07-28T07:21:12.722Z,73.38
2017-07-28T07:23:40.533Z,71.73
2017-07-28T07:26:08.471Z,72.82
2017-07-28T07:28:36.195Z,67.98
2017-07-28T07:31:04.724Z,69.25
2017-07-28T07:33:32.598Z,72.97
2017-07-28T07:36:00.427Z,73.34
2017-07-28T07:38:28.385Z,72.52
2017-07-28T07:40:56.124Z,73.72
2017-07-28T07:43:23.826Z,71.05
2017-07-28T07:45:51.810Z,72.75
2017-07-28T07:48:20.435Z,68.63
2017-07-28T07:50:48.142Z,70.41
2017-07-28T07:53:16.066Z,69.64
2017-07-28T07:55:44.015Z,68.04
2017-07-28T07:58:11.895Z,68.62
2017-07-28T08:00:39.972Z,66.99
2017-07-28T08:03:07.847Z,65.86
2017-07-28T08:05:35.797Z,68.11
2017-07-28T08:08:03.929Z,68.59
2017-07-28T08:10:31.858Z,66.56
2017-07-28T08:12:59.734Z,67.16
2017-07-28T08:15:27.607Z,64.66
2017-07-28T08:17:55.539Z,65.26
2017-07-28T08:20:23.474Z,63.88
2017-07-28T08:22:51.829Z,64.33
2017-07-28T08:25:19.870Z,62.92
2017-07-28T08:27:47.687Z,64.03
2017-07-28T08:30:15.615Z,64.42
2017-07-28T08:32:43.780Z,64.99
2017-07-28T08:35:11.478Z,63.00
2017-07-28T08:37:39.333Z,64.11
2017-07-28T08:40:07.965Z,64.38
2017-07-28T08:42:35.672Z,62.34
2017-07-28T08:45:03.483Z,62.52
2017-07-28T08:47:31.420Z,60.68
2017-07-28T08:49:59.224Z,62.91
2017-07-28T08:52:27.178Z,61.15
2017-07-28T08:54:54.986Z,58.34
2017-07-28T08:57:22.930Z,59.25
2017-07-28T08:59:50.750Z,57.73
2017-07-28T09:02:18.707Z,58.24
2017-07-28T09:04:46.593Z,56.87
2017-07-28T09:07:14.524Z,57.84
2017-07-28T09:09:42.528Z,58.00
2017-07-28T09:12:10.444Z,57.15
2017-07-28T09:14:38.335Z,57.29
2017-07-28T09:17:06.126Z,57.89
2017-07-28T09:19:34.055Z,54.94
2017-07-28T09:22:02.070Z,54.85
2017-07-28T09:24:30.019Z,55.69
2017-07-28T09:26:57.811Z,55.84
2017-07-28T09:29:25.616Z,56.45
2017-07-28T09:31:53.340Z,53.17
2017-07-28T09:34:21.483Z,53.13
2017-07-28T09:36:49.419Z,53.09
2017-07-28T09:39:17.406Z,53.78
2017-07-28T09:41:45.340Z,55.47
2017-07-28T09:44:13.231Z,52.36
2017-07-28T09:46:41.100Z,53.68
2017-07-28T09:49:10.075Z,52.98
2017-07-28T09:51:37.885Z,51.63
2017-07-28T09:54:05.835Z,52.12
2017-07-28T09:56:33.707Z,51.82
2017-07-28T09:59:02.735Z,51.94
2017-07-28T10:01:30.800Z,53.07
2017-07-28T10:03:58.619Z,51.99
2017-07-28T10:06:27.047Z,51.78
2017-07-28T10:08:56.540Z,52.43
2017-07-28T10:11:24.584Z,49.53
2017-07-28T10:13:52.541Z,50.48
2017-07-28T10:16:20.346Z,50.21
2017-07-28T10:18:48.157Z,52.22
2017-07-28T10:21:15.923Z,51.17
2017-07-28T10:23:43.790Z,48.85
2017-07-28T10:26:11.619Z,49.04
2017-07-28T10:28:39.730Z,48.54
2017-07-28T10:31:07.624Z,48.75
2017-07-28T10:33:35.330Z,48.60
2017-07-28T10:36:03.109Z,48.76
2017-07-28T10:38:30.978Z,47.78
2017-07-28T10:40:58.910Z,48.77
2017-07-28T10:43:26.628Z,48.38
2017-07-28T10:45:54.893Z,47.21
2017-07-28T10:48:22.841Z,48.05
2017-07-28T10:50:51.203Z,50.22
2017-07-28T10:53:19.255Z,50.13
2017-07-28T10:55:47.213Z,52.63
2017-07-28T10:58:15.136Z,50.13
2017-07-28T11:00:43.280Z,53.08
2017-07-28T11:03:11.258Z,53.76
2017-07-28T11:05:39.262Z,53.79
2017-07-28T11:08:07.154Z,51.92
2017-07-28T11:10:35.128Z,50.52
2017-07-28T11:13:03.065Z,47.31
2017-07-28T11:15:31.206Z,49.36
2017-07-28T11:17:58.982Z,45.97
2017-07-28T11:20:26.761Z,47.04
2017-07-28T11:22:54.901Z,47.69
2017-07-28T11:25:22.837Z,46.61
2017-07-28T11:27:50.851Z,45.84
2017-07-28T11:30:18.975Z,45.23
2017-07-28T11:32:47.994Z,46.48
2017-07-28T11:35:16.248Z,46.08
2017-07-28T11:37:43.967Z,47.24
2017-07-28T11:40:12.069Z,46.04
2017-07-28T11:42:40.095Z,48.17
2017-07-28T11:45:08.194Z,46.03
2017-07-28T11:47:37.233Z,47.26
2017-07-28T11:50:06.575Z,49.14
2017-07-28T11:52:35.726Z,52.24
2017-07-28T11:55:03.781Z,49.62
2017-07-28T11:57:31.717Z,51.19
2017-07-28T11:59:59.602Z,48.36
2017-07-28T12:02:27.790Z,50.69
2017-07-28T12:04:55.803Z,52.26
2017-07-28T12:07:23.894Z,51.03
2017-07-28T12:09:52.031Z,49.82
2017-07-28T12:12:19.931Z,52.09
2017-07-28T12:14:48.137Z,51.60
2017-07-28T12:17:16.091Z,51.46
2017-07-28T12:19:44.056Z,52.75
2017-07-28T12:22:12.660Z,56.49
2017-07-28T12:24:41.619Z,56.72
2017-07-28T12:27:09.654Z,57.22
2017-07-28T12:29:37.614Z,57.41
2017-07-28T12:32:05.751Z,56.79
2017-07-28T12:34:33.713Z,54.95
2017-07-28T12:37:01.672Z,57.43
2017-07-28T12:39:29.637Z,57.45
2017-07-28T12:41:58.146Z,57.34
2017-07-28T12:44:27.382Z,57.72
2017-07-28T12:46:55.466Z,57.67
2017-07-28T12:49:23.447Z,59.71
2017-07-28T12:51:51.393Z,57.42
2017-07-28T12:54:19.717Z,58.48
2017-07-28T12:56:47.747Z,59.42
2017-07-28T12:59:15.719Z,60.31
2017-07-28T13:01:43.947Z,58.30
2017-07-28T13:04:11.934Z,59.42
2017-07-28T13:06:40.768Z,59.03
2017-07-28T13:09:09.490Z,60.06
2017-07-28T13:11:37.466Z,60.51
2017-07-28T13:14:06.277Z,60.60
2017-07-28T13:16:34.242Z,60.35
2017-07-28T13:19:02.075Z,60.40
2017-07-28T13:21:30.165Z,60.31
2017-07-28T13:23:58.583Z,60.90
2017-07-28T13:26:26.461Z,61.26
2017-07-28T13:28:54.467Z,61.16
2017-07-28T13:31:24.074Z,60.68
2017-07-28T13:33:52.477Z,61.33
2017-07-28T13:36:20.533Z,61.81
2017-07-28T13:38:48.588Z,62.10
2017-07-28T13:41:16.491Z,61.56
2017-07-28T13:43:45.043Z,63.78
2017-07-28T13:46:18.335Z,62.48
2017-07-28T13:48:46.247Z,64.12
2017-07-28T13:51:14.415Z,63.48
2017-07-28T13:53:42.447Z,63.34
2017-07-28T13:56:10.312Z,63.38
2017-07-28T13:58:38.541Z,63.02
2017-07-28T14:01:06.574Z,64.21
2017-07-28T14:03:35.601Z,65.01
2017-07-28T14:06:03.640Z,62.67
2017-07-28T14:08:31.502Z,62.98
2017-07-28T14:10:59.309Z,67.07
2017-07-28T14:13:27.195Z,64.54
2017-07-28T14:15:54.924Z,65.76
2017-07-28T14:18:22.656Z,66.75
2017-07-28T14:20:50.435Z,66.01
2017-07-28T14:23:18.244Z,65.14
2017-07-28T14:25:47.014Z,66.35
2017-07-28T14:28:15.860Z,67.35
2017-07-28T14:30:44.752Z,68.19
2017-07-28T14:33:12.743Z,65.03
2017-07-28T14:35:40.785Z,66.97
2017-07-28T14:38:08.708Z,66.68
2017-07-28T14:40:37.693Z,66.99
2017-07-28T14:43:05.580Z,66.82
2017-07-28T14:45:33.595Z,67.25
2017-07-28T14:48:01.497Z,66.46
2017-07-28T14:50:29.939Z,67.56
2017-07-28T14:52:59.205Z,67.33
2017-07-28T14:55:27.308Z,65.72
2017-07-28T14:57:55.537Z,65.96
2017-07-28T15:00:23.832Z,67.25
2017-07-28T15:02:51.765Z,66.36
2017-07-28T15:05:20.323Z,67.01
2017-07-28T15:07:48.190Z,65.32
2017-07-28T15:10:17.607Z,67.39
2017-07-28T15:12:46.439Z,67.34
2017-07-28T15:15:14.488Z,66.87
2017-07-28T15:17:42.367Z,65.78
2017-07-28T15:20:10.235Z,65.16
2017-07-28T15:22:38.083Z,63.48
2017-07-28T15:25:07.142Z,64.07
2017-07-28T15:27:34.963Z,63.82
2017-07-28T15:30:02.830Z,63.12
2017-07-28T15:32:30.610Z,64.63
2017-07-28T15:34:58.336Z,65.13
2017-07-28T15:37:26.176Z,66.85
2017-07-28T15:39:54.065Z,65.97
2017-07-28T15:42:21.901Z,65.22
2017-07-28T15:44:49.746Z,65.78
2017-07-28T15:47:17.556Z,65.17
2017-07-28T15:49:45.294Z,65.61
2017-07-28T15:52:14.242Z,64.83
2017-07-28T15:54:42.019Z,63.56
2017-07-28T15:57:10.589Z,61.80
2017-07-28T15:59:38.492Z,62.00
2017-07-28T16:02:06.294Z,60.32
2017-07-28T16:04:34.064Z,62.77
2017-07-28T16:07:02.006Z,64.46
2017-07-28T16:09:29.845Z,65.33
2017-07-28T16:11:57.781Z,63.40
2017-07-28T16:14:25.605Z,62.67
2017-07-28T16:16:53.476Z,62.25
2017-07-28T16:19:22.273Z,63.75
2017-07-28T16:21:50.071Z,63.45
2017-07-28T16:24:17.850Z,64.53
2017-07-28T16:26:45.633Z,64.62
2017-07-28T16:29:13.566Z,64.35
2017-07-28T16:31:41.330Z,65.26
2017-07-28T16:34:09.326Z,64.96
2017-07-28T16:36:37.096Z,64.84
2017-07-28T16:39:05.024Z,64.99
2017-07-28T16:41:32.937Z,65.10
2017-07-28T16:44:00.830Z,64.01
2017-07-28T16:46:28.626Z,65.68
2017-07-28T16:48:56.395Z,65.64
2017-07-28T16:51:24.263Z,64.61
2017-07-28T16:53:52.207Z,63.15
2017-07-28T16:56:19.944Z,64.07
2017-07-28T16:58:48.507Z,65.07
2017-07-28T17:01:16.544Z,65.24
2017-07-28T17:03:44.547Z,65.89
2017-07-28T17:06:12.360Z,66.13
2017-07-28T17:08:40.225Z,66.57
2017-07-28T17:11:08.078Z,67.00
2017-07-28T17:13:36.057Z,66.43
2017-07-28T17:16:03.965Z,65.45
2017-07-28T17:18:31.924Z,65.07
2017-07-28T17:20:59.784Z,65.75
2017-07-28T17:23:27.652Z,66.21
2017-07-28T17:25:55.518Z,66.78
2017-07-28T17:28:23.466Z,67.50
2017-07-28T17:30:51.441Z,66.57
2017-07-28T17:33:19.511Z,66.37
2017-07-28T17:35:47.419Z,66.31
2017-07-28T17:38:15.336Z,67.21
2017-07-28T17:40:43.371Z,68.78
2017-07-28T17:43:11.234Z,68.29
2017-07-28T17:45:39.146Z,67.18
2017-07-28T17:48:06.916Z,67.54
2017-07-28T17:50:34.895Z,68.25
2017-07-28T17:53:02.752Z,68.50
2017-07-28T17:55:30.611Z,68.72
2017-07-28T17:57:58.434Z,70.13
2017-07-28T18:00:26.186Z,69.36
2017-07-28T18:02:54.064Z,70.20
2017-07-28T18:05:21.871Z,70.13
2017-07-28T18:07:49.745Z,70.41
2017-07-28T18:10:17.716Z,71.27
2017-07-28T18:12:45.544Z,71.24
2017-07-28T18:15:14.346Z,71.34
2017-07-28T18:17:42.446Z,71.72
2017-07-28T18:20:10.270Z,72.39
2017-07-28T18:22:38.168Z,72.95
2017-07-28T18:25:06.041Z,72.65
2017-07-28T18:27:33.921Z,73.56
2017-07-28T18:30:01.767Z,73.95
2017-07-28T18:32:29.591Z,73.96
2017-07-28T18:34:57.445Z,73.51
2017-07-28T18:37:25.425Z,72.98
2017-07-28T18:39:53.267Z,72.71
2017-07-28T18:42:21.141Z,73.01
2017-07-28T18:44:49.449Z,73.69
2017-07-28T18:47:17.328Z,73.69
2017-07-28T18:49:45.363Z,73.80
2017-07-28T18:52:13.357Z,74.35
2017-07-28T18:54:41.580Z,73.90
2017-07-28T18:57:09.633Z,73.57
2017-07-28T18:59:38.024Z,74.12
2017-07-28T19:02:06.113Z,74.11
2017-07-28T19:04:34.059Z,74.04
2017-07-28T19:07:02.022Z,74.33
2017-07-28T19:09:29.876Z,75.00
2017-07-28T19:11:58.744Z,75.42
2017-07-28T19:14:26.586Z,75.62
2017-07-28T19:16:54.558Z,76.17
2017-07-28T19:19:22.419Z,76.53
2017-07-28T19:21:50.350Z,76.92
2017-07-28T19:24:18.282Z,76.80
2017-07-28T19:26:47.688Z,76.90
2017-07-28T19:29:17.089Z,76.38
2017-07-28T19:31:44.868Z,76.00
2017-07-28T19:34:13.517Z,75.89
2017-07-28T19:36:42.302Z,75.59
2017-07-28T19:39:10.577Z,75.86
2017-07-28T19:41:38.537Z,75.91
2017-07-28T19:44:06.572Z,76.07
2017-07-28T19:46:35.041Z,75.96
2017-07-28T19:49:02.865Z,76.65
2017-07-28T19:51:30.741Z,77.06
2017-07-28T19:53:58.704Z,77.66
2017-07-28T19:56:26.554Z,76.88
2017-07-28T19:58:54.388Z,76.71
2017-07-28T20:01:22.219Z,76.91
2017-07-28T20:03:50.033Z,76.60
2017-07-28T20:06:17.877Z,76.51
2017-07-28T20:08:45.800Z,76.94
2017-07-28T20:11:13.579Z,76.80
2017-07-28T20:13:41.565Z,76.28
2017-07-28T20:16:09.661Z,75.74
2017-07-28T20:18:38.391Z,76.09
2017-07-28T20:21:06.127Z,76.16
2017-07-28T20:23:33.994Z,76.78
2017-07-28T20:26:01.755Z,77.07
2017-07-28T20:28:30.571Z,77.79
2017-07-28T20:30:58.679Z,77.68
2017-07-28T20:33:26.486Z,77.63
2017-07-28T20:35:54.296Z,77.38
2017-07-28T20:38:22.163Z,76.58
2017-07-28T20:40:49.994Z,77.01
2017-07-28T20:43:17.885Z,76.75
2017-07-28T20:45:45.854Z,76.29
2017-07-28T20:48:13.592Z,76.95
2017-07-28T20:50:41.300Z,77.57
2017-07-28T20:53:09.142Z,78.00
2017-07-28T20:55:37.545Z,78.34
2017-07-28T20:58:05.460Z,78.13
2017-07-28T21:00:33.377Z,79.18
2017-07-28T21:03:01.117Z,78.73
2017-07-28T21:05:28.918Z,78.70
2017-07-28T21:07:56.802Z,78.87
2017-07-28T21:10:24.630Z,79.13
2017-07-28T21:12:53.257Z,78.84
2017-07-28T21:15:22.043Z,78.03
2017-07-28T21:17:49.896Z,78.18
2017-07-28T21:20:17.651Z,79.36
2017-07-28T21:22:45.527Z,79.67
2017-07-28T21:25:13.330Z,80.37
2017-07-28T21:27:41.043Z,80.11
2017-07-28T21:30:08.853Z,79.09
2017-07-28T21:32:36.734Z,78.44
2017-07-28T21:35:04.711Z,79.50
2017-07-28T21:37:32.470Z,79.97
2017-07-28T21:40:00.276Z,80.04
2017-07-28T21:42:28.084Z,80.81
2017-07-28T21:44:55.936Z,80.26
2017-07-28T21:47:23.703Z,80.38
2017-07-28T21:49:51.519Z,79.96
2017-07-28T21:52:19.356Z,79.89
2017-07-28T21:54:47.313Z,79.25
2017-07-28T21:57:15.183Z,79.32
2017-07-28T21:59:43.023Z,78.59
2017-07-28T22:02:10.888Z,78.03
2017-07-28T22:04:38.588Z,77.99
2017-07-28T22:07:06.454Z,77.70
2017-07-28T22:09:34.231Z,78.72
2017-07-28T22:12:01.957Z,79.62
2017-07-28T22:14:29.919Z,79.92
2017-07-28T22:16:57.604Z,79.92
2017-07-28T22:19:26.503Z,80.05
2017-07-28T22:21:54.264Z,79.76
2017-07-28T22:24:22.098Z,79.75
2017-07-28T22:26:50.086Z,80.47
2017-07-28T22:29:18.013Z,80.87
2017-07-28T22:31:45.701Z,81.46
2017-07-28T22:34:13.491Z,81.51
2017-07-28T22:36:41.240Z,81.34
2017-07-28T22:39:10.015Z,81.19
2017-07-28T22:41:37.752Z,81.29
2017-07-28T22:44:05.627Z,82.08
2017-07-28T22:46:33.461Z,82.03
2017-07-28T22:49:01.291Z,82.00
2017-07-28T22:51:29.060Z,81.64
2017-07-28T22:53:56.880Z,82.14
2017-07-28T22:56:24.771Z,81.48
2017-07-28T22:58:52.489Z,80.55
2017-07-28T23:01:20.276Z,80.51
2017-07-28T23:03:48.165Z,81.33
2017-07-28T23:06:15.983Z,81.27
2017-07-28T23:08:43.955Z,82.15
2017-07-28T23:11:11.661Z,81.85
2017-07-28T23:13:39.549Z,81.97
2017-07-28T23:16:07.448Z,81.90
2017-07-28T23:18:35.309Z,81.79
2017-07-28T23:21:03.132Z,81.33
2017-07-28T23:23:30.966Z,81.60
2017-07-28T23:25:58.791Z,82.53
2017-07-28T23:28:26.575Z,82.84
2017-07-28T23:30:54.271Z,82.63
2017-07-28T23:33:22.058Z,82.50
2017-07-28T23:35:49.773Z,82.57
2017-07-28T23:38:17.615Z,82.06
2017-07-28T23:40:45.318Z,82.48
2017-07-28T23:43:13.387Z,82.37
2017-07-28T23:45:41.144Z,82.21
2017-07-28T23:48:09.094Z,82.68
2017-07-28T23:50:36.938Z,83.29
2017-07-28T23:53:04.629Z,83.87
2017-07-28T23:55:32.436Z,83.20
2017-07-28T23:58:00.125Z,83.34
